Rugby, TN

10:51 AM EST on January 26, 2015 (GMT -0500)
RAWS BISO-NP TN US | Change Station
CLOSE
Current Station
Personal Weather Station
Location: Elgin, TN
Elevation: 1444 ft
Nearby Weather Stations
Active Advisory: Special Statement

Elev 1444 ft 36.47 °N, 84.65 °W | Updated 52 minutes ago

Overcast
Overcast
28 °F
Feels Like 22 °F
N
5
Wind Variable Wind from WNW
Gusts 13.0 mph

Today
High -- | Low -- °F
--% Chance of Precip.
Yesterday
High -- | Low -- °F
Precip. -- in
7:44 AM 5:58 PM
Waxing Crescent, 44% visible
Pressure 29.85 in
Visibility 10.0 miles
Clouds Overcast 2600 ft
Windchill 22 °F
Dew Point 27 °F
Humidity 95%
Rainfall 0.20 in
Snow Depth Not available.
UV 1 out of 12
Pollen .30 out of 12
Air Quality Not available.
Flu Activity Not available.
METAR KOQT 261453Z AUTO VRB04KT 10SM OVC026 03/M01 A2983 RMK AO2 SLP108 T00331006 53027

More Conditions Fewer Conditions

Pressure 29.85 in
Visibility 10.0 miles
Clouds Overcast 2600 ft
Windchill 22 °F
Dew Point 27 °F
Humidity 95%
Rainfall 0.20 in
Snow Depth Not available.
UV 1 out of 12
Pollen .30 out of 12
Air Quality Not available.
Flu Activity Not available.
METAR KOQT 261453Z AUTO VRB04KT 10SM OVC026 03/M01 A2983 RMK AO2 SLP108 T00331006 53027

More Conditions Fewer Conditions

10-Day Weather Forecast

Almanac

Astronomy

Jan. 26, 2015 Rise Set
Actual Time
Civil Twilight
Nautical Twilight
Astronomical Twilight
Moon
Length of Visible Light
Length of Day
Tomorrow will be .
, % of the Moon is Illuminated

Today's Extremes

State Highs State Lows

Community

WunderPhotos

Upload Photos

1,790,249 photos uploaded!

WunderBlogs® & News

Nearby

Air Quality

  Air Quality AQ Index Pollutant
Not available.

Snow Depth

Station Depth Elevation

Earthquake Activity

City Distance Mag. Time & Date
Minimum magnitude displayed is 2.5.

Coastal Water Temperatures

Place Temperature

Nearby Weather Stations